createdAt,value
2022-08-07T00:02:40.589Z,101070.84
2022-08-07T00:05:07.072Z,101066.44
2022-08-07T00:07:36.899Z,101069.81
2022-08-07T00:10:30.593Z,101063.00
2022-08-07T00:13:09.705Z,101065.34
2022-08-07T00:15:53.212Z,101065.81
2022-08-07T00:18:29.494Z,101052.34
2022-08-07T00:21:03.519Z,101057.69
2022-08-07T00:23:40.505Z,101059.13
2022-08-07T00:26:18.580Z,101051.53
2022-08-07T00:29:04.286Z,101055.44
2022-08-07T00:31:37.576Z,101051.84
2022-08-07T00:34:08.746Z,101046.06
2022-08-07T00:36:43.007Z,101051.50
2022-08-07T00:39:17.090Z,101044.72
2022-08-07T00:42:02.037Z,101044.81
2022-08-07T00:44:35.085Z,101044.03
2022-08-07T00:47:16.178Z,101047.94
2022-08-07T00:50:19.185Z,101050.50
2022-08-07T00:52:48.018Z,101043.22
2022-08-07T00:55:25.371Z,101046.38
2022-08-07T00:58:07.021Z,101034.38
2022-08-07T01:00:39.215Z,101046.38
2022-08-07T01:03:54.843Z,101042.19
2022-08-07T01:06:12.823Z,101035.66
2022-08-07T01:08:53.676Z,101034.38
2022-08-07T01:12:09.744Z,101038.56
2022-08-07T01:14:15.445Z,101036.72
2022-08-07T01:16:47.169Z,101041.19
2022-08-07T01:19:22.753Z,101038.31
2022-08-07T01:21:55.637Z,101035.19
2022-08-07T01:24:30.821Z,101042.72
2022-08-07T01:27:03.969Z,101039.06
2022-08-07T01:29:35.235Z,101047.81
2022-08-07T01:32:12.354Z,101041.69
2022-08-07T01:34:47.447Z,101041.94
2022-08-07T01:37:20.435Z,101039.22
2022-08-07T01:39:52.717Z,101025.53
2022-08-07T01:42:38.812Z,101021.38
2022-08-07T01:45:17.932Z,101035.56
2022-08-07T01:48:20.504Z,101036.88
2022-08-07T01:50:48.244Z,101032.44
2022-08-07T01:54:11.745Z,101039.31
2022-08-07T01:56:49.398Z,101034.88
2022-08-07T01:59:30.923Z,101043.38
2022-08-07T02:02:10.294Z,101029.13
2022-08-07T02:04:56.637Z,101022.31
2022-08-07T02:07:50.007Z,101025.22
2022-08-07T02:10:27.957Z,101019.22
2022-08-07T02:13:01.232Z,101030.47
2022-08-07T02:15:40.104Z,101029.34
2022-08-07T02:18:13.763Z,101024.94
2022-08-07T02:20:48.672Z,101034.16
2022-08-07T02:23:25.338Z,101034.00
2022-08-07T02:26:30.571Z,101029.63
2022-08-07T02:28:49.364Z,101043.72
2022-08-07T02:31:29.094Z,101045.28
2022-08-07T02:34:11.512Z,101043.44
2022-08-07T02:36:53.678Z,101036.69
2022-08-07T02:39:42.939Z,101041.22
2022-08-07T02:42:21.091Z,101047.78
2022-08-07T02:44:54.786Z,101048.34
2022-08-07T02:47:28.619Z,101042.84
2022-08-07T02:50:19.454Z,101050.03
2022-08-07T02:53:03.312Z,101043.41
2022-08-07T02:56:04.340Z,101042.34
2022-08-07T02:58:33.505Z,101046.34
2022-08-07T03:01:16.060Z,101052.66
2022-08-07T03:03:50.931Z,101050.13
2022-08-07T03:06:33.066Z,101058.38
2022-08-07T03:09:10.999Z,101053.19
2022-08-07T03:11:51.783Z,101068.09
2022-08-07T03:14:29.328Z,101065.59
2022-08-07T03:16:59.605Z,101065.31
2022-08-07T03:19:36.996Z,101063.25
2022-08-07T03:22:18.826Z,101072.84
2022-08-07T03:24:52.238Z,101066.94
2022-08-07T03:27:30.347Z,101067.06
2022-08-07T03:30:04.996Z,101065.84
2022-08-07T03:32:57.132Z,101071.28
2022-08-07T03:35:44.008Z,101077.09
2022-08-07T03:38:29.356Z,101078.59
2022-08-07T03:41:02.364Z,101074.66
2022-08-07T03:43:36.172Z,101074.56
2022-08-07T03:46:18.406Z,101074.38
2022-08-07T03:49:02.404Z,101087.72
2022-08-07T03:51:47.175Z,101087.25
2022-08-07T03:54:36.169Z,101094.41
2022-08-07T03:58:08.740Z,101089.06
2022-08-07T04:00:04.102Z,101095.72
2022-08-07T04:02:47.247Z,101097.59
2022-08-07T04:05:42.265Z,101095.72
2022-08-07T04:08:18.665Z,101092.41
2022-08-07T04:12:24.667Z,101092.56
2022-08-07T04:14:09.487Z,101093.81
2022-08-07T04:16:38.086Z,101104.19
2022-08-07T04:19:15.047Z,101103.56
2022-08-07T04:22:05.469Z,101109.53
2022-08-07T04:24:44.200Z,101116.06
2022-08-07T04:27:25.264Z,101125.50
2022-08-07T04:30:01.855Z,101113.47
2022-08-07T04:32:57.920Z,101125.19
2022-08-07T04:35:35.284Z,101124.88
2022-08-07T04:38:13.192Z,101118.69
2022-08-07T04:41:02.583Z,101125.31
2022-08-07T04:44:10.430Z,101130.50
2022-08-07T04:47:08.478Z,101122.88
2022-08-07T04:50:10.851Z,101129.44
2022-08-07T04:52:51.934Z,101131.31
2022-08-07T04:58:10.440Z,101120.06
2022-08-07T05:01:50.658Z,101129.66
2022-08-07T05:04:34.441Z,101128.19
2022-08-07T05:07:23.305Z,101136.06
2022-08-07T05:10:11.124Z,101130.56
2022-08-07T05:12:53.708Z,101120.75
2022-08-07T05:15:36.899Z,101132.78
2022-08-07T05:18:24.212Z,101125.47
2022-08-07T05:20:58.515Z,101128.97
2022-08-07T05:23:32.268Z,101136.09
2022-08-07T05:26:13.026Z,101136.38
2022-08-07T05:28:50.724Z,101133.78
2022-08-07T05:31:34.993Z,101128.97
2022-08-07T05:34:12.761Z,101135.84
2022-08-07T05:36:55.620Z,101127.53
2022-08-07T05:40:06.394Z,101131.56
2022-08-07T05:42:55.842Z,101124.22
2022-08-07T05:45:47.435Z,101128.41
2022-08-07T05:48:26.342Z,101126.91
2022-08-07T05:51:03.383Z,101123.09
2022-08-07T05:54:13.913Z,101127.81
2022-08-07T05:56:28.355Z,101128.75
2022-08-07T05:59:04.166Z,101133.69
2022-08-07T06:01:37.990Z,101125.88
2022-08-07T06:04:10.314Z,101127.00
2022-08-07T06:06:46.079Z,101130.06
2022-08-07T06:09:18.873Z,101129.81
2022-08-07T06:11:53.148Z,101129.59
2022-08-07T06:14:28.491Z,101134.53
2022-08-07T06:17:07.295Z,101141.28
2022-08-07T06:19:47.826Z,101134.97
2022-08-07T06:22:38.702Z,101140.75
2022-08-07T06:25:28.997Z,101142.97
2022-08-07T06:28:08.993Z,101142.75
2022-08-07T06:30:46.124Z,101140.47
2022-08-07T06:33:29.783Z,101136.41
2022-08-07T06:36:13.415Z,101142.03
2022-08-07T06:38:59.054Z,101144.88
2022-08-07T06:42:03.042Z,101152.66
2022-08-07T06:45:05.581Z,101153.72
2022-08-07T06:47:56.985Z,101150.53
2022-08-07T06:50:32.472Z,101147.41
2022-08-07T06:53:04.552Z,101152.22
2022-08-07T06:55:47.953Z,101152.66
2022-08-07T06:58:28.785Z,101153.22
2022-08-07T07:01:07.435Z,101163.88
2022-08-07T07:03:50.234Z,101147.41
2022-08-07T07:06:28.279Z,101156.47
2022-08-07T07:08:58.183Z,101157.59
2022-08-07T07:12:07.848Z,101147.38
2022-08-07T07:14:19.403Z,101155.66
2022-08-07T07:16:54.363Z,101154.75
2022-08-07T07:19:55.800Z,101155.06
2022-08-07T07:22:36.771Z,101151.91
2022-08-07T07:26:31.560Z,101147.88
2022-08-07T07:28:42.738Z,101156.66
2022-08-07T07:31:44.284Z,101157.16
2022-08-07T07:34:20.968Z,101149.25
2022-08-07T07:36:54.039Z,101147.47
2022-08-07T07:39:26.331Z,101154.38
2022-08-07T07:42:19.985Z,101150.19
2022-08-07T07:44:51.234Z,101148.19
2022-08-07T07:47:24.899Z,101146.78
2022-08-07T07:50:35.274Z,101146.22
2022-08-07T07:52:47.346Z,101147.06
2022-08-07T07:55:20.410Z,101145.66
2022-08-07T07:57:58.175Z,101152.91
2022-08-07T08:00:34.082Z,101154.47
2022-08-07T08:03:16.560Z,101157.84
2022-08-07T08:06:01.675Z,101156.44
2022-08-07T08:08:37.003Z,101153.97
2022-08-07T08:11:16.206Z,101162.16
2022-08-07T08:13:59.829Z,101166.03
2022-08-07T08:16:35.610Z,101161.56
2022-08-07T08:19:09.626Z,101163.06
2022-08-07T08:22:09.732Z,101166.75
2022-08-07T08:25:18.705Z,101155.88
2022-08-07T08:27:56.380Z,101165.59
2022-08-07T08:30:34.563Z,101161.69
2022-08-07T08:33:10.565Z,101158.53
2022-08-07T08:35:50.900Z,101155.34
2022-08-07T08:38:29.595Z,101152.31
2022-08-07T08:41:23.008Z,101158.72
2022-08-07T08:44:12.216Z,101157.69
2022-08-07T08:46:56.115Z,101153.03
2022-08-07T08:50:02.740Z,101163.28
2022-08-07T08:52:54.074Z,101154.69
2022-08-07T08:55:58.583Z,101154.19
2022-08-07T08:58:50.686Z,101136.13
2022-08-07T09:01:43.839Z,101147.16
2022-08-07T09:04:44.412Z,101148.56
2022-08-07T09:07:57.596Z,101144.22
2022-08-07T09:10:52.081Z,101149.06
2022-08-07T09:13:38.145Z,101159.97
2022-08-07T09:16:25.603Z,101159.25
2022-08-07T09:19:52.064Z,101147.56
2022-08-07T09:24:28.459Z,101154.00
2022-08-07T09:25:38.974Z,101148.66
2022-08-07T09:30:05.360Z,101160.19
2022-08-07T09:31:38.293Z,101163.84
2022-08-07T09:34:19.163Z,101162.34
2022-08-07T09:37:06.001Z,101157.38
2022-08-07T09:40:00.667Z,101154.94
2022-08-07T09:43:40.259Z,101160.25
2022-08-07T09:47:52.329Z,101157.28
2022-08-07T09:50:00.732Z,101156.44
2022-08-07T09:52:51.897Z,101156.53
2022-08-07T09:56:03.763Z,101147.06
2022-08-07T09:59:14.044Z,101150.19
2022-08-07T10:02:12.299Z,101140.78
2022-08-07T10:05:00.540Z,101154.72
2022-08-07T10:08:00.352Z,101152.06
2022-08-07T10:11:16.741Z,101159.25
2022-08-07T10:14:23.095Z,101159.25
2022-08-07T10:18:02.585Z,101149.69
2022-08-07T10:21:00.609Z,101140.78
2022-08-07T10:24:06.892Z,101155.03
2022-08-07T10:27:01.310Z,101157.84
2022-08-07T10:29:45.648Z,101148.31
2022-08-07T10:32:51.640Z,101151.44
2022-08-07T10:35:56.028Z,101145.38
2022-08-07T10:38:52.286Z,101149.06
2022-08-07T10:41:46.372Z,101150.97
2022-08-07T10:44:45.288Z,101135.19
2022-08-07T10:47:53.773Z,101134.28
2022-08-07T10:50:29.620Z,101145.47
2022-08-07T10:53:08.915Z,101141.22
2022-08-07T10:56:19.710Z,101133.06
2022-08-07T10:59:37.278Z,101138.44
2022-08-07T11:02:33.099Z,101139.28
2022-08-07T11:05:13.567Z,101133.66
2022-08-07T11:08:09.853Z,101130.16
2022-08-07T11:11:00.051Z,101121.44
2022-08-07T11:14:44.914Z,101123.97
2022-08-07T11:17:02.075Z,101133.47
2022-08-07T11:19:36.262Z,101127.00
2022-08-07T11:22:32.344Z,101132.38
2022-08-07T11:25:17.877Z,101141.88
2022-08-07T11:28:15.286Z,101135.75
2022-08-07T11:30:56.669Z,101134.06
2022-08-07T11:33:59.730Z,101125.94
2022-08-07T11:36:52.196Z,101139.66
2022-08-07T11:39:58.934Z,101134.22
2022-08-07T11:42:47.550Z,101141.19
2022-08-07T11:45:49.998Z,101139.88
2022-08-07T11:49:27.799Z,101129.38
2022-08-07T11:52:11.001Z,101130.91
2022-08-07T11:54:55.992Z,101130.16
2022-08-07T11:58:16.625Z,101135.94
2022-08-07T12:01:23.023Z,101136.59
2022-08-07T12:04:25.466Z,101138.19
2022-08-07T12:07:27.793Z,101145.03
2022-08-07T12:10:24.653Z,101143.88
2022-08-07T12:13:47.456Z,101143.16
2022-08-07T12:16:48.826Z,101139.16
2022-08-07T12:20:02.762Z,101128.47
2022-08-07T12:22:55.901Z,101131.88
2022-08-07T12:26:05.882Z,101138.31
2022-08-07T12:29:04.010Z,101134.44
2022-08-07T12:32:04.133Z,101128.84
2022-08-07T12:34:39.727Z,101131.97
2022-08-07T12:37:16.536Z,101133.56
2022-08-07T12:39:54.225Z,101132.41
2022-08-07T12:42:32.324Z,101128.13
2022-08-07T12:45:13.751Z,101129.38
2022-08-07T12:47:58.619Z,101127.28
2022-08-07T12:50:40.191Z,101128.16
2022-08-07T12:54:24.260Z,101134.47
2022-08-07T12:56:38.214Z,101131.28
2022-08-07T12:59:09.493Z,101124.09
2022-08-07T13:02:14.098Z,101123.13
2022-08-07T13:05:14.938Z,101113.31
2022-08-07T13:08:34.154Z,101126.56
2022-08-07T13:12:03.370Z,101136.53
2022-08-07T13:15:02.592Z,101141.06
2022-08-07T13:17:59.592Z,101143.44
2022-08-07T13:20:44.676Z,101154.94
2022-08-07T13:24:01.981Z,101163.25
2022-08-07T13:26:21.503Z,101152.97
2022-08-07T13:29:05.190Z,101166.13
2022-08-07T13:32:32.459Z,101168.13
2022-08-07T13:36:00.584Z,101163.53
2022-08-07T13:38:30.593Z,101174.22
2022-08-07T13:41:14.692Z,101181.69
2022-08-07T13:43:52.528Z,101184.06
2022-08-07T13:46:41.831Z,101182.88
2022-08-07T13:50:33.460Z,101182.56
2022-08-07T13:52:32.481Z,101183.41
2022-08-07T13:55:10.920Z,101181.38
2022-08-07T13:57:59.121Z,101189.81
2022-08-07T14:00:50.609Z,101196.56
2022-08-07T14:03:30.001Z,101196.47
2022-08-07T14:06:17.082Z,101200.81
2022-08-07T14:08:53.495Z,101200.47
2022-08-07T14:11:24.537Z,101202.47
2022-08-07T14:14:07.734Z,101189.72
2022-08-07T14:16:44.964Z,101190.91
2022-08-07T14:20:40.866Z,101197.31
2022-08-07T14:22:48.132Z,101198.47
2022-08-07T14:25:19.153Z,101204.00
2022-08-07T14:28:12.715Z,101204.06
2022-08-07T14:30:52.136Z,101196.91
2022-08-07T14:33:23.427Z,101196.06
2022-08-07T14:36:00.749Z,101196.81
2022-08-07T14:38:34.973Z,101197.59
2022-08-07T14:41:12.463Z,101207.19
2022-08-07T14:43:59.383Z,101200.78
2022-08-07T14:49:57.478Z,101197.16
2022-08-07T14:52:28.832Z,101198.81
2022-08-07T14:55:00.562Z,101200.03
2022-08-07T14:57:54.980Z,101203.94
2022-08-07T15:03:52.464Z,101212.56
2022-08-07T15:06:16.231Z,101214.13
2022-08-07T15:08:52.914Z,101211.31
2022-08-07T15:11:53.460Z,101219.72
2022-08-07T15:14:30.607Z,101218.88
2022-08-07T15:17:55.174Z,101224.06
2022-08-07T15:20:32.475Z,101227.22
2022-08-07T15:26:04.495Z,101224.56
2022-08-07T15:28:47.243Z,101236.09
2022-08-07T15:32:00.979Z,101243.28
2022-08-07T15:34:17.218Z,101242.53
2022-08-07T15:37:04.711Z,101243.22
2022-08-07T15:39:57.481Z,101245.56
2022-08-07T15:42:51.858Z,101241.97
2022-08-07T15:45:24.157Z,101234.31
2022-08-07T15:48:30.957Z,101231.72
2022-08-07T15:51:14.317Z,101232.44
2022-08-07T15:53:57.470Z,101225.91
2022-08-07T15:56:40.652Z,101224.09
2022-08-07T15:59:17.842Z,101240.19
2022-08-07T16:02:02.385Z,101233.59
2022-08-07T16:04:39.428Z,101240.34
2022-08-07T16:08:32.777Z,101246.16
2022-08-07T16:10:17.178Z,101245.22
2022-08-07T16:13:17.587Z,101248.31
2022-08-07T16:16:42.740Z,101245.78
2022-08-07T16:19:42.463Z,101240.81
2022-08-07T16:22:36.438Z,101241.56
2022-08-07T16:25:54.210Z,101246.56
2022-08-07T16:30:08.295Z,101254.06
2022-08-07T16:32:06.987Z,101251.66
2022-08-07T16:35:00.989Z,101251.72
2022-08-07T16:38:04.005Z,101249.81
2022-08-07T16:41:27.640Z,101243.69
2022-08-07T16:44:40.478Z,101243.31
2022-08-07T16:47:56.604Z,101236.25
2022-08-07T16:51:20.523Z,101241.53
2022-08-07T16:54:06.816Z,101236.88
2022-08-07T16:56:53.309Z,101239.41
2022-08-07T16:59:45.809Z,101237.16
2022-08-07T17:02:53.391Z,101236.81
2022-08-07T17:06:28.501Z,101236.38
2022-08-07T17:09:15.786Z,101230.44
2022-08-07T17:12:35.643Z,101233.28
2022-08-07T17:15:16.099Z,101231.28
2022-08-07T17:18:06.062Z,101237.81
2022-08-07T17:20:46.589Z,101226.16
2022-08-07T17:23:38.042Z,101227.03
2022-08-07T17:26:23.700Z,101230.50
2022-08-07T17:28:59.775Z,101224.34
2022-08-07T17:31:43.957Z,101225.59
2022-08-07T17:35:41.492Z,101218.66
2022-08-07T17:38:09.859Z,101230.84
2022-08-07T17:40:42.623Z,101223.38
2022-08-07T17:43:19.981Z,101222.91
2022-08-07T17:46:19.165Z,101211.81
2022-08-07T17:49:09.510Z,101211.22
2022-08-07T17:52:00.352Z,101200.75
2022-08-07T17:54:53.775Z,101199.28
2022-08-07T17:57:58.609Z,101197.38
2022-08-07T18:00:34.392Z,101198.38
2022-08-07T18:03:25.599Z,101182.09
2022-08-07T18:06:09.357Z,101185.19
2022-08-07T18:09:05.576Z,101176.78
2022-08-07T18:12:17.400Z,101186.56
2022-08-07T18:15:08.656Z,101176.44
2022-08-07T18:18:46.910Z,101175.66
2022-08-07T18:21:37.068Z,101180.44
2022-08-07T18:24:01.960Z,101162.19
2022-08-07T18:27:03.506Z,101163.47
2022-08-07T18:30:32.739Z,101163.63
2022-08-07T18:33:38.194Z,101160.59
2022-08-07T18:36:33.242Z,101152.41
2022-08-07T18:40:08.360Z,101153.31
2022-08-07T18:43:07.263Z,101151.84
2022-08-07T18:46:24.889Z,101142.13
2022-08-07T18:50:32.777Z,101136.53
2022-08-07T18:52:54.964Z,101133.72
2022-08-07T18:55:43.608Z,101134.31
2022-08-07T18:58:35.232Z,101134.03
2022-08-07T19:02:18.632Z,101131.66
2022-08-07T19:04:37.218Z,101123.28
2022-08-07T19:07:34.759Z,101122.09
2022-08-07T19:10:18.522Z,101128.97
2022-08-07T19:13:10.217Z,101121.47
2022-08-07T19:17:01.246Z,101109.03
2022-08-07T19:19:33.374Z,101121.78
2022-08-07T19:22:30.860Z,101116.06
2022-08-07T19:25:06.615Z,101106.72
2022-08-07T19:28:57.683Z,101108.75
2022-08-07T19:30:58.371Z,101100.38
2022-08-07T19:33:34.601Z,101093.34
2022-08-07T19:36:08.788Z,101103.22
2022-08-07T19:38:52.607Z,101099.00
2022-08-07T19:41:39.230Z,101097.78
2022-08-07T19:44:21.645Z,101085.44
2022-08-07T19:46:57.829Z,101080.31
2022-08-07T19:49:58.293Z,101088.97
2022-08-07T19:52:23.137Z,101080.91
2022-08-07T19:54:56.194Z,101086.03
2022-08-07T19:58:00.143Z,101082.91
2022-08-07T20:00:34.471Z,101078.88
2022-08-07T20:03:35.708Z,101071.13
2022-08-07T20:06:04.865Z,101073.72
2022-08-07T20:08:50.343Z,101064.38
2022-08-07T20:12:01.268Z,101068.66
2022-08-07T20:14:20.831Z,101064.44
2022-08-07T20:16:57.432Z,101063.50
2022-08-07T20:19:47.940Z,101056.75
2022-08-07T20:22:28.959Z,101050.78
2022-08-07T20:25:12.509Z,101055.00
2022-08-07T20:27:48.172Z,101039.09
2022-08-07T20:30:35.491Z,101040.66
2022-08-07T20:33:09.145Z,101041.69
2022-08-07T20:36:03.688Z,101040.63
2022-08-07T20:38:35.045Z,101036.69
2022-08-07T20:41:05.848Z,101037.00
2022-08-07T20:43:47.472Z,101039.63
2022-08-07T20:46:25.792Z,101035.94
2022-08-07T20:49:59.781Z,101033.81
2022-08-07T20:51:51.626Z,101034.34
2022-08-07T20:54:29.801Z,101031.19
2022-08-07T20:57:08.366Z,101031.59
2022-08-07T21:00:06.636Z,101023.31
2022-08-07T21:03:00.065Z,101013.81
2022-08-07T21:06:12.416Z,101012.28
2022-08-07T21:09:07.526Z,101009.22
2022-08-07T21:11:51.558Z,101010.34
2022-08-07T21:14:34.060Z,101004.22
2022-08-07T21:18:03.949Z,101002.38
2022-08-07T21:20:06.064Z,100996.38
2022-08-07T21:22:51.306Z,100993.03
2022-08-07T21:25:42.646Z,100989.47
2022-08-07T21:28:55.535Z,100989.25
2022-08-07T21:32:46.609Z,100983.88
2022-08-07T21:35:02.472Z,100982.59
2022-08-07T21:37:58.714Z,100972.91
2022-08-07T21:40:40.642Z,100975.56
2022-08-07T21:43:16.029Z,100963.94
2022-08-07T21:46:09.456Z,100967.63
2022-08-07T21:49:16.918Z,100962.91
2022-08-07T21:52:06.183Z,100962.91
2022-08-07T21:55:27.991Z,100949.53
2022-08-07T21:58:04.926Z,100955.56
2022-08-07T22:00:34.903Z,100955.56
2022-08-07T22:03:36.328Z,100951.50
2022-08-07T22:06:30.988Z,100947.13
2022-08-07T22:09:11.334Z,100940.69
2022-08-07T22:12:05.914Z,100935.66
2022-08-07T22:14:59.296Z,100932.25
2022-08-07T22:17:36.970Z,100924.47
2022-08-07T22:20:07.458Z,100926.00
2022-08-07T22:22:53.947Z,100921.97
2022-08-07T22:25:44.605Z,100909.25
2022-08-07T22:28:32.233Z,100918.97
2022-08-07T22:31:59.141Z,100907.53
2022-08-07T22:34:29.018Z,100910.78
2022-08-07T22:38:02.976Z,100908.44
2022-08-07T22:40:46.205Z,100913.47
2022-08-07T22:43:47.792Z,100904.69
2022-08-07T22:47:02.329Z,100901.72
2022-08-07T22:49:54.098Z,100896.69
2022-08-07T22:52:37.801Z,100896.13
2022-08-07T22:55:30.155Z,100893.78
2022-08-07T22:58:14.515Z,100893.38
2022-08-07T23:01:11.801Z,100891.44
2022-08-07T23:04:09.543Z,100882.50
2022-08-07T23:07:39.962Z,100883.84
2022-08-07T23:10:37.987Z,100882.63
2022-08-07T23:13:08.791Z,100882.34
2022-08-07T23:16:46.804Z,100875.91
2022-08-07T23:19:51.799Z,100888.81
2022-08-07T23:22:34.045Z,100888.66
2022-08-07T23:25:43.725Z,100884.81
2022-08-07T23:28:44.324Z,100879.75
2022-08-07T23:32:49.255Z,100876.78
2022-08-07T23:34:56.255Z,100878.56
2022-08-07T23:38:00.470Z,100879.66
2022-08-07T23:40:35.947Z,100873.59
2022-08-07T23:43:47.145Z,100870.31
2022-08-07T23:46:33.875Z,100861.81
2022-08-07T23:49:22.948Z,100868.69
2022-08-07T23:53:01.446Z,100860.34
2022-08-07T23:55:00.605Z,100851.63
2022-08-07T23:57:37.946Z,100856.19
